createdAt,value
2017-05-11T00:00:00.487Z,64.56
2017-05-11T00:00:26.581Z,64.75
2017-05-11T00:00:52.670Z,64.65
2017-05-11T00:01:18.781Z,64.75
2017-05-11T00:01:44.850Z,64.28
2017-05-11T00:02:10.955Z,64.56
2017-05-11T00:02:37.072Z,64.56
2017-05-11T00:03:03.196Z,64.75
2017-05-11T00:03:29.301Z,64.65
2017-05-11T00:03:55.434Z,64.47
2017-05-11T00:04:21.566Z,65.13
2017-05-11T00:04:47.657Z,65.42
2017-05-11T00:05:13.749Z,65.23
2017-05-11T00:05:39.833Z,65.61
2017-05-11T00:06:05.924Z,65.61
2017-05-11T00:06:32.001Z,65.32
2017-05-11T00:06:58.101Z,65.42
2017-05-11T00:07:24.189Z,65.42
2017-05-11T00:07:50.289Z,65.8
2017-05-11T00:08:16.363Z,66.08
2017-05-11T00:08:42.484Z,65.99
2017-05-11T00:09:08.614Z,66.18
2017-05-11T00:09:34.748Z,66.18
2017-05-11T00:10:00.847Z,66.08
2017-05-11T00:10:26.929Z,65.99
2017-05-11T00:10:53.021Z,65.8
2017-05-11T00:11:19.102Z,65.8
2017-05-11T00:11:45.195Z,66.08
2017-05-11T00:12:11.288Z,66.18
2017-05-11T00:12:37.391Z,65.89
2017-05-11T00:13:03.467Z,65.89
2017-05-11T00:13:29.582Z,66.08
2017-05-11T00:13:55.701Z,65.99
2017-05-11T00:14:21.741Z,65.89
2017-05-11T00:14:47.848Z,65.89
2017-05-11T00:15:13.921Z,65.89
2017-05-11T00:15:40.040Z,65.99
2017-05-11T00:16:06.146Z,66.18
2017-05-11T00:16:32.221Z,65.99
2017-05-11T00:16:58.309Z,66.27
2017-05-11T00:17:24.393Z,65.99
2017-05-11T00:17:50.508Z,66.37
2017-05-11T00:18:16.617Z,66.27
2017-05-11T00:18:42.781Z,66.46
2017-05-11T00:19:08.874Z,65.99
2017-05-11T00:19:35.002Z,66.08
2017-05-11T00:20:01.119Z,65.89
2017-05-11T00:20:27.237Z,65.8
2017-05-11T00:20:53.327Z,65.99
2017-05-11T00:21:19.422Z,65.89
2017-05-11T00:21:45.554Z,65.99
2017-05-11T00:22:11.667Z,66.18
2017-05-11T00:22:37.760Z,66.37
2017-05-11T00:23:03.889Z,66.75
2017-05-11T00:23:30.006Z,66.66
2017-05-11T00:23:56.079Z,66.37
2017-05-11T00:24:22.200Z,66.46
2017-05-11T00:24:48.337Z,66.81
2017-05-11T00:25:14.439Z,66.72
2017-05-11T00:25:40.533Z,67.1
2017-05-11T00:26:06.654Z,67.1
2017-05-11T00:26:32.732Z,67.1
2017-05-11T00:26:58.830Z,67
2017-05-11T00:27:24.961Z,67.57
2017-05-11T00:27:51.073Z,67.19
2017-05-11T00:28:17.191Z,67.19
2017-05-11T00:28:43.326Z,66.91
2017-05-11T00:29:09.446Z,67.19
2017-05-11T00:29:35.545Z,67.19
2017-05-11T00:30:01.675Z,66.91
2017-05-11T00:30:27.778Z,67.29
2017-05-11T00:30:53.919Z,67.29
2017-05-11T00:31:20.022Z,66.66
2017-05-11T00:31:46.137Z,66.56
2017-05-11T00:32:12.291Z,66.75
2017-05-11T00:32:38.450Z,66.85
2017-05-11T00:33:04.535Z,66.66
2017-05-11T00:33:30.658Z,66.75
2017-05-11T00:33:56.843Z,66.08
2017-05-11T00:34:22.959Z,66.33
2017-05-11T00:34:49.104Z,66.85
2017-05-11T00:35:15.208Z,66.53
2017-05-11T00:35:41.327Z,66.24
2017-05-11T00:36:07.413Z,66.62
2017-05-11T00:36:33.540Z,66.62
2017-05-11T00:36:59.634Z,67.29
2017-05-11T00:37:25.760Z,67.19
2017-05-11T00:37:51.872Z,67.38
2017-05-11T00:38:17.967Z,67.29
2017-05-11T00:38:44.128Z,67.67
2017-05-11T00:39:10.270Z,67.57
2017-05-11T00:39:36.408Z,68.15
2017-05-11T00:40:02.542Z,67.86
2017-05-11T00:40:28.638Z,67.76
2017-05-11T00:40:54.727Z,67.95
2017-05-11T00:41:20.831Z,67.95
2017-05-11T00:41:46.956Z,67.95
2017-05-11T00:42:13.045Z,67.95
2017-05-11T00:42:39.172Z,67.86
2017-05-11T00:43:05.314Z,68.15
2017-05-11T00:43:31.422Z,68.24
2017-05-11T00:43:57.566Z,68.15
2017-05-11T00:44:23.656Z,67.76
2017-05-11T00:44:49.787Z,67.95
2017-05-11T00:45:15.912Z,67.95
2017-05-11T00:45:42.000Z,67.76
2017-05-11T00:46:08.151Z,68.24
2017-05-11T00:46:34.255Z,68.24
2017-05-11T00:47:00.342Z,67.76
2017-05-11T00:47:26.463Z,68.05
2017-05-11T00:47:52.592Z,67.95
2017-05-11T00:48:18.682Z,68.05
2017-05-11T00:48:44.863Z,68.15
2017-05-11T00:49:11.006Z,68.05
2017-05-11T00:49:37.127Z,67.76
2017-05-11T00:50:03.232Z,68.15
2017-05-11T00:50:29.342Z,68.71
2017-05-11T00:50:55.438Z,68.33
2017-05-11T00:51:21.573Z,68.52
2017-05-11T00:51:47.661Z,68.71
2017-05-11T00:52:13.803Z,68.9
2017-05-11T00:52:39.935Z,69
2017-05-11T00:53:06.026Z,68.52
2017-05-11T00:53:32.137Z,68.62
2017-05-11T00:53:58.291Z,68.33
2017-05-11T00:54:24.442Z,68.43
2017-05-11T00:54:50.601Z,68.43
2017-05-11T00:55:16.718Z,68.33
2017-05-11T00:55:42.834Z,68.62
2017-05-11T00:56:08.962Z,68.71
2017-05-11T00:56:35.054Z,68.71
2017-05-11T00:57:01.142Z,68.9
2017-05-11T00:57:27.277Z,69
2017-05-11T00:57:53.456Z,68.71
2017-05-11T00:58:19.598Z,68.71
2017-05-11T00:58:45.700Z,68.96
2017-05-11T00:59:11.828Z,68.9
2017-05-11T00:59:37.976Z,68.9
2017-05-11T01:00:04.121Z,68.9
2017-05-11T01:00:30.207Z,68.71
2017-05-11T01:00:56.315Z,69
2017-05-11T01:01:22.463Z,68.81
2017-05-11T01:01:48.692Z,68.9
2017-05-11T01:02:14.794Z,68.81
2017-05-11T01:02:40.948Z,68.81
2017-05-11T01:03:07.091Z,68.96
2017-05-11T01:03:33.214Z,68.9
2017-05-11T01:03:59.373Z,68.62
2017-05-11T01:04:25.483Z,68.59
2017-05-11T01:04:51.608Z,69.06
2017-05-11T01:05:17.765Z,68.87
2017-05-11T01:05:43.870Z,69.06
2017-05-11T01:06:10.023Z,69.15
2017-05-11T01:06:36.126Z,69.25
2017-05-11T01:07:02.252Z,69.35
2017-05-11T01:07:28.356Z,69.35
2017-05-11T01:07:54.489Z,69.25
2017-05-11T01:08:20.614Z,68.96
2017-05-11T01:08:46.773Z,69.25
2017-05-11T01:09:12.938Z,69.73
2017-05-11T01:09:39.033Z,69.82
2017-05-11T01:10:05.141Z,69.35
2017-05-11T01:10:31.230Z,69.44
2017-05-11T01:10:57.318Z,69.54
2017-05-11T01:11:23.423Z,69.92
2017-05-11T01:11:49.547Z,69.82
2017-05-11T01:12:15.660Z,69.63
2017-05-11T01:12:41.819Z,69.73
2017-05-11T01:13:07.947Z,69.63
2017-05-11T01:13:34.085Z,69.92
2017-05-11T01:14:00.238Z,69.63
2017-05-11T01:14:26.450Z,69.82
2017-05-11T01:14:52.623Z,69.82
2017-05-11T01:15:18.726Z,69.63
2017-05-11T01:15:44.859Z,69.73
2017-05-11T01:16:10.948Z,69.54
2017-05-11T01:16:37.073Z,69.44
2017-05-11T01:17:03.187Z,69.44
2017-05-11T01:17:29.289Z,69.73
2017-05-11T01:17:55.544Z,69.82
2017-05-11T01:18:21.630Z,69.82
2017-05-11T01:18:47.752Z,70.3
2017-05-11T01:19:13.910Z,70.3
2017-05-11T01:19:40.102Z,70.2
2017-05-11T01:20:06.195Z,70.49
2017-05-11T01:20:32.300Z,70.3
2017-05-11T01:20:58.393Z,70.77
2017-05-11T01:21:24.529Z,70.77
2017-05-11T01:21:50.629Z,70.58
2017-05-11T01:22:16.752Z,70.87
2017-05-11T01:22:42.910Z,71.15
2017-05-11T01:23:09.024Z,70.87
2017-05-11T01:23:35.167Z,70.87
2017-05-11T01:24:01.271Z,70.97
2017-05-11T01:24:27.563Z,70.97
2017-05-11T01:24:53.649Z,70.97
2017-05-11T01:25:19.812Z,70.58
2017-05-11T01:25:45.908Z,70.97
2017-05-11T01:26:12.021Z,70.97
2017-05-11T01:26:38.125Z,70.97
2017-05-11T01:27:04.224Z,71.15
2017-05-11T01:27:30.350Z,70.97
2017-05-11T01:27:56.491Z,70.87
2017-05-11T01:28:22.630Z,70.87
2017-05-11T01:28:48.793Z,70.68
2017-05-11T01:29:14.916Z,71.06
2017-05-11T01:29:41.052Z,70.97
2017-05-11T01:30:07.185Z,71.06
2017-05-11T01:30:33.283Z,71.25
2017-05-11T01:30:59.394Z,71.15
2017-05-11T01:31:25.592Z,71.44
2017-05-11T01:31:51.681Z,71.25
2017-05-11T01:32:17.765Z,71.06
2017-05-11T01:32:43.888Z,71.06
2017-05-11T01:33:10.038Z,71.06
2017-05-11T01:33:36.164Z,71.25
2017-05-11T01:34:02.264Z,71.25
2017-05-11T01:34:28.401Z,71.25
2017-05-11T01:34:54.560Z,71.41
2017-05-11T01:35:20.691Z,71.06
2017-05-11T01:35:46.777Z,71.06
2017-05-11T01:36:12.880Z,71.25
2017-05-11T01:36:39.010Z,71.15
2017-05-11T01:37:05.099Z,71.63
2017-05-11T01:37:31.221Z,70.97
2017-05-11T01:37:57.380Z,71.15
2017-05-11T01:38:23.500Z,71.25
2017-05-11T01:38:49.655Z,71.15
2017-05-11T01:39:15.765Z,71.15
2017-05-11T01:39:41.938Z,70.87
2017-05-11T01:40:08.067Z,71.44
2017-05-11T01:40:34.158Z,71.44
2017-05-11T01:41:00.279Z,71.34
2017-05-11T01:41:26.411Z,71.44
2017-05-11T01:41:52.503Z,71.25
2017-05-11T01:42:18.593Z,71.44
2017-05-11T01:42:44.756Z,71.44
2017-05-11T01:43:10.849Z,71.34
2017-05-11T01:43:36.938Z,71.25
2017-05-11T01:44:03.070Z,71.72
2017-05-11T01:44:29.184Z,71.53
2017-05-11T01:44:55.315Z,71.72
2017-05-11T01:45:21.407Z,71.82
2017-05-11T01:45:47.520Z,71.72
2017-05-11T01:46:13.628Z,71.53
2017-05-11T01:46:39.721Z,71.72
2017-05-11T01:47:05.834Z,71.91
2017-05-11T01:47:31.987Z,71.5
2017-05-11T01:47:58.085Z,71.82
2017-05-11T01:48:24.201Z,71.69
2017-05-11T01:48:50.325Z,71.97
2017-05-11T01:49:16.431Z,71.78
2017-05-11T01:49:42.522Z,72.01
2017-05-11T01:50:08.646Z,71.72
2017-05-11T01:50:34.759Z,71.72
2017-05-11T01:51:00.888Z,71.5
2017-05-11T01:51:26.988Z,72.16
2017-05-11T01:51:53.074Z,71.88
2017-05-11T01:52:19.200Z,71.97
2017-05-11T01:52:45.359Z,72.16
2017-05-11T01:53:11.444Z,71.97
2017-05-11T01:53:37.615Z,71.88
2017-05-11T01:54:03.771Z,72.07
2017-05-11T01:54:29.933Z,72.07
2017-05-11T01:54:56.078Z,72.07
2017-05-11T01:55:22.210Z,71.69
2017-05-11T01:55:48.300Z,71.88
2017-05-11T01:56:14.412Z,72.16
2017-05-11T01:56:40.547Z,72.16
2017-05-11T01:57:06.693Z,72.26
2017-05-11T01:57:32.781Z,71.88
2017-05-11T01:57:58.912Z,72.16
2017-05-11T01:58:25.067Z,72.16
2017-05-11T01:58:51.227Z,71.97
2017-05-11T01:59:17.356Z,71.88
2017-05-11T01:59:43.486Z,72.07
2017-05-11T02:00:09.596Z,71.88
2017-05-11T02:00:35.718Z,72.07
2017-05-11T02:01:01.837Z,71.97
2017-05-11T02:01:27.941Z,72.07
2017-05-11T02:01:54.038Z,72.16
2017-05-11T02:02:20.174Z,72.07
2017-05-11T02:02:46.304Z,72.07
2017-05-11T02:03:12.436Z,71.88
2017-05-11T02:03:38.574Z,71.88
2017-05-11T02:04:04.725Z,72.07
2017-05-11T02:04:30.886Z,72.07
2017-05-11T02:04:57.004Z,71.63
2017-05-11T02:05:23.097Z,72.01
2017-05-11T02:05:49.258Z,71.72
2017-05-11T02:06:15.349Z,71.25
2017-05-11T02:06:41.482Z,71.82
2017-05-11T02:07:07.638Z,71.5
2017-05-11T02:07:33.735Z,71.72
2017-05-11T02:07:59.896Z,71.82
2017-05-11T02:08:25.987Z,71.69
2017-05-11T02:08:52.104Z,71.69
2017-05-11T02:09:18.265Z,71.69
2017-05-11T02:09:44.384Z,71.82
2017-05-11T02:10:10.496Z,71.88
2017-05-11T02:10:36.629Z,71.69
2017-05-11T02:11:02.724Z,71.72
2017-05-11T02:11:28.883Z,71.78
2017-05-11T02:11:54.989Z,72.26
2017-05-11T02:12:21.079Z,71.88
2017-05-11T02:12:47.211Z,71.69
2017-05-11T02:13:13.355Z,71.69
2017-05-11T02:13:39.493Z,72.26
2017-05-11T02:14:05.651Z,71.88
2017-05-11T02:14:31.797Z,72.16
2017-05-11T02:14:57.883Z,71.31
2017-05-11T02:15:24.067Z,71.41
2017-05-11T02:15:50.198Z,71.88
2017-05-11T02:16:16.253Z,71.97
2017-05-11T02:16:42.355Z,71.97
2017-05-11T02:17:08.516Z,71.97
2017-05-11T02:17:34.658Z,71.88
2017-05-11T02:18:00.779Z,72.26
2017-05-11T02:18:26.918Z,72.35
2017-05-11T02:18:53.050Z,72.16
2017-05-11T02:19:19.232Z,72.35
2017-05-11T02:19:45.345Z,71.88
2017-05-11T02:20:11.446Z,72.35
2017-05-11T02:20:37.576Z,71.69
2017-05-11T02:21:03.662Z,72.07
2017-05-11T02:21:29.784Z,72.16
2017-05-11T02:21:55.945Z,71.59
2017-05-11T02:22:22.109Z,71.97
2017-05-11T02:22:48.277Z,71.59
2017-05-11T02:23:14.438Z,72.07
2017-05-11T02:23:40.590Z,72.35
2017-05-11T02:24:06.720Z,72.35
2017-05-11T02:24:32.877Z,72.35
2017-05-11T02:24:59.001Z,72.35
2017-05-11T02:25:25.132Z,72.07
2017-05-11T02:25:51.276Z,71.5
2017-05-11T02:26:17.371Z,71.5
2017-05-11T02:26:43.529Z,72.16
2017-05-11T02:27:09.649Z,71.88
2017-05-11T02:27:35.815Z,72.07
2017-05-11T02:28:01.973Z,72.07
2017-05-11T02:28:28.096Z,72.07
2017-05-11T02:28:54.250Z,72.16
2017-05-11T02:29:20.417Z,72.07
2017-05-11T02:29:46.537Z,72.07
2017-05-11T02:30:12.725Z,71.97
2017-05-11T02:30:38.819Z,71.97
2017-05-11T02:31:04.909Z,72.35
2017-05-11T02:31:31.015Z,72.16
2017-05-11T02:31:57.165Z,71.88
2017-05-11T02:32:23.255Z,72.26
2017-05-11T02:32:49.381Z,71.41
2017-05-11T02:33:15.536Z,72.55
2017-05-11T02:33:41.649Z,72.16
2017-05-11T02:34:07.775Z,71.88
2017-05-11T02:34:33.884Z,71.97
2017-05-11T02:34:59.991Z,72.35
2017-05-11T02:35:26.114Z,72.55
2017-05-11T02:35:52.249Z,72.45
2017-05-11T02:36:18.353Z,72.35
2017-05-11T02:36:44.449Z,72.35
2017-05-11T02:37:10.541Z,72.35
2017-05-11T02:37:36.639Z,72.35
2017-05-11T02:38:02.744Z,72.26
2017-05-11T02:38:28.829Z,72.35
2017-05-11T02:38:54.950Z,71.88
2017-05-11T02:39:21.080Z,71.69
2017-05-11T02:39:47.196Z,72.07
2017-05-11T02:40:13.315Z,72.26
2017-05-11T02:40:39.448Z,71.69
2017-05-11T02:41:05.594Z,71.78
2017-05-11T02:41:31.707Z,71.69
2017-05-11T02:41:57.869Z,71.69
2017-05-11T02:42:24.021Z,71.97
2017-05-11T02:42:50.136Z,72.07
2017-05-11T02:43:16.237Z,72.26
2017-05-11T02:43:42.363Z,71.88
2017-05-11T02:44:08.476Z,72.55
2017-05-11T02:44:34.654Z,72.45
2017-05-11T02:45:00.757Z,72.35
2017-05-11T02:45:26.898Z,72.45
2017-05-11T02:45:52.993Z,72.35
2017-05-11T02:46:19.106Z,72.35
2017-05-11T02:46:45.237Z,72.74
2017-05-11T02:47:11.363Z,72.55
2017-05-11T02:47:37.450Z,72.92
2017-05-11T02:48:03.576Z,72.26
2017-05-11T02:48:29.707Z,72.26
2017-05-11T02:48:55.814Z,72.55
2017-05-11T02:49:21.910Z,72.35
2017-05-11T02:49:48.070Z,72.26
2017-05-11T02:50:14.159Z,72.16
2017-05-11T02:50:40.300Z,71.88
2017-05-11T02:51:06.422Z,72.26
2017-05-11T02:51:32.520Z,72.07
2017-05-11T02:51:58.626Z,71.88
2017-05-11T02:52:24.715Z,71.97
2017-05-11T02:52:50.884Z,71.97
2017-05-11T02:53:17.018Z,72.16
2017-05-11T02:53:43.135Z,72.26
2017-05-11T02:54:09.278Z,71.88
2017-05-11T02:54:35.465Z,72.07
2017-05-11T02:55:01.585Z,72.07
2017-05-11T02:55:27.672Z,71.97
2017-05-11T02:55:53.777Z,72.07
2017-05-11T02:56:19.924Z,72.07
2017-05-11T02:56:46.025Z,72.26
2017-05-11T02:57:12.138Z,72.07
2017-05-11T02:57:38.232Z,72.07
2017-05-11T02:58:04.391Z,71.97
2017-05-11T02:58:30.482Z,72.07
2017-05-11T02:58:56.645Z,72.35
2017-05-11T02:59:22.802Z,71.88
2017-05-11T02:59:48.953Z,72.35
2017-05-11T03:00:15.091Z,71.69
2017-05-11T03:00:41.195Z,72.64
2017-05-11T03:01:07.354Z,71.88
2017-05-11T03:01:33.467Z,71.88
2017-05-11T03:01:59.567Z,72.16
2017-05-11T03:02:25.655Z,72.35
2017-05-11T03:02:51.818Z,71.31
2017-05-11T03:03:18.014Z,72.55
2017-05-11T03:03:44.153Z,72.35
2017-05-11T03:04:10.310Z,71.88
2017-05-11T03:04:36.409Z,72.16
2017-05-11T03:05:02.546Z,72.07
2017-05-11T03:05:28.675Z,72.16
2017-05-11T03:05:54.831Z,72.07
2017-05-11T03:06:20.918Z,72.07
2017-05-11T03:06:47.040Z,71.78
2017-05-11T03:07:13.144Z,71.97
2017-05-11T03:07:39.255Z,71.69
2017-05-11T03:08:05.380Z,72.45
2017-05-11T03:08:31.515Z,72.55
2017-05-11T03:08:57.666Z,72.55
2017-05-11T03:09:23.799Z,72.35
2017-05-11T03:09:49.911Z,72.35
2017-05-11T03:10:16.008Z,72.35
2017-05-11T03:10:42.139Z,72.45
2017-05-11T03:11:08.253Z,72.74
2017-05-11T03:11:34.372Z,72.74
2017-05-11T03:12:00.531Z,72.45
2017-05-11T03:12:26.623Z,72.83
2017-05-11T03:12:52.735Z,72.92
2017-05-11T03:13:18.989Z,72.74
2017-05-11T03:13:45.109Z,72.55
2017-05-11T03:14:11.240Z,72.74
2017-05-11T03:14:37.403Z,72.92
2017-05-11T03:15:03.596Z,73.11
2017-05-11T03:15:29.754Z,72.92
2017-05-11T03:15:55.847Z,73.11
2017-05-11T03:16:21.961Z,72.92
2017-05-11T03:16:48.069Z,72.92
2017-05-11T03:17:14.191Z,72.92
2017-05-11T03:17:40.280Z,72.92
2017-05-11T03:18:06.436Z,73.02
2017-05-11T03:18:32.588Z,73.02
2017-05-11T03:18:58.760Z,72.64
2017-05-11T03:19:24.904Z,72.74
2017-05-11T03:19:50.993Z,72.64
2017-05-11T03:20:17.129Z,73.02
2017-05-11T03:20:43.250Z,73.11
2017-05-11T03:21:09.362Z,72.74
2017-05-11T03:21:35.493Z,72.74
2017-05-11T03:22:01.589Z,72.92
2017-05-11T03:22:27.680Z,72.92
2017-05-11T03:22:53.807Z,72.92
2017-05-11T03:23:19.938Z,72.92
2017-05-11T03:23:46.077Z,72.74
2017-05-11T03:24:12.247Z,72.92
2017-05-11T03:24:38.409Z,73.3
2017-05-11T03:25:04.543Z,73.4
2017-05-11T03:25:30.664Z,72.92
2017-05-11T03:25:56.796Z,72.83
2017-05-11T03:26:22.888Z,73.21
2017-05-11T03:26:49.001Z,73.3
2017-05-11T03:27:15.189Z,73.59
2017-05-11T03:27:41.310Z,73.02
2017-05-11T03:28:07.471Z,73.3
2017-05-11T03:28:33.629Z,73.11
2017-05-11T03:28:59.754Z,72.92
2017-05-11T03:29:25.893Z,73.02
2017-05-11T03:29:52.042Z,73.21
2017-05-11T03:30:18.158Z,73.3
2017-05-11T03:30:44.322Z,73.97
2017-05-11T03:31:10.415Z,73.59
2017-05-11T03:31:36.504Z,73.49
2017-05-11T03:32:02.632Z,73.49
2017-05-11T03:32:28.730Z,73.49
2017-05-11T03:32:54.842Z,73.4
2017-05-11T03:33:20.969Z,73.4
2017-05-11T03:33:47.128Z,73.49
2017-05-11T03:34:13.264Z,73.78
2017-05-11T03:34:39.409Z,73.49
2017-05-11T03:35:05.540Z,73.4
2017-05-11T03:35:31.626Z,73.21
2017-05-11T03:35:57.754Z,73.02
2017-05-11T03:36:23.841Z,72.92
2017-05-11T03:36:49.965Z,73.21
2017-05-11T03:37:16.152Z,73.02
2017-05-11T03:37:42.261Z,73.02
2017-05-11T03:38:08.411Z,72.92
2017-05-11T03:38:34.596Z,72.83
2017-05-11T03:39:00.716Z,72.92
2017-05-11T03:39:26.861Z,73.02
2017-05-11T03:39:52.994Z,73.02
2017-05-11T03:40:19.112Z,73.49
2017-05-11T03:40:45.222Z,73.3
2017-05-11T03:41:11.404Z,73.3
2017-05-11T03:41:37.546Z,73.3
2017-05-11T03:42:03.679Z,72.92
2017-05-11T03:42:29.790Z,73.02
2017-05-11T03:42:55.911Z,73.3
2017-05-11T03:43:22.042Z,73.21
2017-05-11T03:43:48.288Z,73.21
2017-05-11T03:44:14.400Z,73.4
2017-05-11T03:44:40.560Z,73.59
2017-05-11T03:45:06.679Z,73.88
2017-05-11T03:45:32.766Z,73.97
2017-05-11T03:45:58.871Z,73.78
2017-05-11T03:46:25.022Z,73.69
2017-05-11T03:46:51.118Z,73.69
2017-05-11T03:47:17.210Z,73.49
2017-05-11T03:47:43.324Z,73.59
2017-05-11T03:48:09.540Z,73.69
2017-05-11T03:48:35.712Z,73.69
2017-05-11T03:49:01.851Z,73.4
2017-05-11T03:49:27.985Z,73.49
2017-05-11T03:49:54.081Z,73.97
2017-05-11T03:50:20.196Z,73.97
2017-05-11T03:50:46.326Z,73.97
2017-05-11T03:51:12.481Z,73.69
2017-05-11T03:51:38.567Z,73.59
2017-05-11T03:52:04.713Z,73.84
2017-05-11T03:52:30.805Z,74.16
2017-05-11T03:52:56.939Z,74.44
2017-05-11T03:53:23.118Z,74.26
2017-05-11T03:53:49.235Z,74.22
2017-05-11T03:54:15.412Z,74.51
2017-05-11T03:54:41.572Z,74.51
2017-05-11T03:55:07.657Z,74.22
2017-05-11T03:55:33.754Z,74.22
2017-05-11T03:55:59.886Z,74.51
2017-05-11T03:56:25.975Z,74.41
2017-05-11T03:56:52.119Z,74.82
2017-05-11T03:57:18.249Z,74.51
2017-05-11T03:57:44.391Z,74.88
2017-05-11T03:58:10.523Z,74.88
2017-05-11T03:58:36.656Z,74.6
2017-05-11T03:59:02.779Z,74.69
2017-05-11T03:59:28.910Z,74.69
2017-05-11T03:59:55.025Z,74.6
2017-05-11T04:00:21.143Z,74.6
2017-05-11T04:00:47.247Z,75.02
2017-05-11T04:01:13.363Z,74.51
2017-05-11T04:01:39.451Z,74.51
2017-05-11T04:02:05.586Z,74.51
2017-05-11T04:02:31.708Z,74.41
2017-05-11T04:02:57.795Z,74.44
2017-05-11T04:03:23.928Z,74.31
2017-05-11T04:03:50.045Z,74.26
2017-05-11T04:04:16.177Z,74.63
2017-05-11T04:04:42.297Z,74.35
2017-05-11T04:05:08.460Z,74.22
2017-05-11T04:05:34.595Z,74.51
2017-05-11T04:06:00.775Z,74.44
2017-05-11T04:06:26.865Z,74.54
2017-05-11T04:06:52.994Z,73.78
2017-05-11T04:07:19.119Z,74.44
2017-05-11T04:07:45.241Z,74.26
2017-05-11T04:08:11.308Z,74.26
2017-05-11T04:08:37.468Z,74.44
2017-05-11T04:09:03.579Z,74.26
2017-05-11T04:09:29.680Z,73.88
2017-05-11T04:09:55.810Z,74.44
2017-05-11T04:10:21.899Z,74.26
2017-05-11T04:10:48.018Z,74.26
2017-05-11T04:11:14.119Z,73.69
2017-05-11T04:11:40.238Z,73.69
2017-05-11T04:12:06.325Z,73.69
2017-05-11T04:12:32.483Z,73.49
2017-05-11T04:12:58.605Z,73.59
2017-05-11T04:13:24.743Z,73.49
2017-05-11T04:13:50.902Z,73.78
2017-05-11T04:14:17.027Z,73.97
2017-05-11T04:14:43.172Z,73.49
2017-05-11T04:15:09.314Z,73.4
2017-05-11T04:15:35.450Z,73.78
2017-05-11T04:16:01.613Z,73.88
2017-05-11T04:16:27.709Z,73.78
2017-05-11T04:16:53.846Z,73.97
2017-05-11T04:17:19.948Z,73.69
2017-05-11T04:17:46.073Z,73.69
2017-05-11T04:18:12.187Z,73.59
2017-05-11T04:18:38.342Z,73.97
2017-05-11T04:19:04.475Z,73.97
2017-05-11T04:19:30.591Z,73.97
2017-05-11T04:19:56.711Z,74.07
2017-05-11T04:20:22.858Z,73.97
2017-05-11T04:20:49.041Z,73.97
2017-05-11T04:21:15.136Z,73.88
2017-05-11T04:21:41.274Z,73.97
2017-05-11T04:22:07.376Z,73.78
2017-05-11T04:22:33.508Z,73.69
2017-05-11T04:22:59.618Z,73.88
2017-05-11T04:23:25.742Z,73.97
2017-05-11T04:23:51.904Z,73.3
2017-05-11T04:24:18.045Z,74.07
2017-05-11T04:24:44.187Z,73.97
2017-05-11T04:25:10.324Z,74.26
2017-05-11T04:25:36.461Z,74.16
2017-05-11T04:26:02.593Z,74.16
2017-05-11T04:26:28.679Z,73.78
2017-05-11T04:26:54.775Z,73.88
2017-05-11T04:27:20.879Z,73.97
2017-05-11T04:27:46.967Z,74.16
2017-05-11T04:28:13.087Z,74.35
2017-05-11T04:28:39.273Z,74.26
2017-05-11T04:29:05.390Z,74.16
2017-05-11T04:29:31.478Z,73.78
2017-05-11T04:29:57.667Z,73.78
2017-05-11T04:30:23.761Z,74.07
2017-05-11T04:30:49.876Z,73.88
2017-05-11T04:31:16.002Z,74.07
2017-05-11T04:31:42.094Z,74.07
2017-05-11T04:32:08.277Z,73.88
2017-05-11T04:32:34.394Z,73.97
2017-05-11T04:33:00.483Z,74.26
2017-05-11T04:33:26.617Z,73.69
2017-05-11T04:33:52.763Z,73.78
2017-05-11T04:34:18.876Z,74.07
2017-05-11T04:34:45.061Z,73.78
2017-05-11T04:35:11.185Z,73.4
2017-05-11T04:35:37.278Z,73.02
2017-05-11T04:36:03.401Z,72.92
2017-05-11T04:36:29.560Z,72.92
2017-05-11T04:36:55.678Z,73.11
2017-05-11T04:37:21.772Z,73.49
2017-05-11T04:37:47.886Z,73.3
2017-05-11T04:38:14.014Z,73.4
2017-05-11T04:38:40.142Z,73.11
2017-05-11T04:39:06.253Z,72.83
2017-05-11T04:39:32.354Z,72.83
2017-05-11T04:39:58.514Z,73.11
2017-05-11T04:40:24.597Z,72.83
2017-05-11T04:40:50.720Z,72.74
2017-05-11T04:41:16.851Z,73.02
2017-05-11T04:41:42.939Z,73.02
2017-05-11T04:42:09.032Z,72.83
2017-05-11T04:42:35.127Z,72.92
2017-05-11T04:43:01.253Z,73.11
2017-05-11T04:43:27.385Z,72.92
2017-05-11T04:43:53.520Z,72.83
2017-05-11T04:44:19.669Z,73.02
2017-05-11T04:44:45.855Z,72.92
2017-05-11T04:45:11.996Z,72.92
2017-05-11T04:45:38.115Z,72.83
2017-05-11T04:46:04.216Z,73.02
2017-05-11T04:46:30.334Z,72.92
2017-05-11T04:46:56.469Z,73.02
2017-05-11T04:47:22.577Z,72.92
2017-05-11T04:47:48.729Z,72.92
2017-05-11T04:48:14.858Z,73.02
2017-05-11T04:48:40.948Z,72.74
2017-05-11T04:49:07.066Z,72.74
2017-05-11T04:49:33.256Z,72.26
2017-05-11T04:49:59.371Z,72.35
2017-05-11T04:50:25.460Z,72.16
2017-05-11T04:50:51.566Z,72.16
2017-05-11T04:51:17.743Z,72.07
2017-05-11T04:51:43.856Z,72.45
2017-05-11T04:52:09.986Z,72.55
2017-05-11T04:52:36.110Z,72.74
2017-05-11T04:53:02.246Z,72.92
2017-05-11T04:53:28.375Z,72.92
2017-05-11T04:53:54.512Z,72.74
2017-05-11T04:54:20.646Z,72.16
2017-05-11T04:54:46.795Z,72.3
2017-05-11T04:55:12.900Z,72.49
2017-05-11T04:55:39.014Z,72.11
2017-05-11T04:56:05.133Z,71.91
2017-05-11T04:56:31.238Z,71.97
2017-05-11T04:56:57.328Z,71.88
2017-05-11T04:57:23.413Z,72.01
2017-05-11T04:57:49.575Z,72.11
2017-05-11T04:58:15.722Z,72.11
2017-05-11T04:58:41.811Z,72.49
2017-05-11T04:59:07.942Z,72.01
2017-05-11T04:59:34.108Z,72.11
2017-05-11T05:00:00.240Z,72.3
2017-05-11T05:00:26.332Z,72.11
2017-05-11T05:00:52.445Z,72.2
2017-05-11T05:01:18.552Z,72.11
2017-05-11T05:01:44.649Z,71.72
2017-05-11T05:02:10.739Z,71.72
2017-05-11T05:02:36.844Z,71.91
2017-05-11T05:03:02.941Z,72.01
2017-05-11T05:03:29.054Z,71.91
2017-05-11T05:03:55.159Z,71.91
2017-05-11T05:04:21.292Z,71.63
2017-05-11T05:04:47.439Z,71.91
2017-05-11T05:05:13.531Z,71.91
2017-05-11T05:05:39.620Z,71.25
2017-05-11T05:06:05.779Z,71.15
2017-05-11T05:06:31.875Z,71.06
2017-05-11T05:06:58.015Z,71.15
2017-05-11T05:07:24.166Z,71.06
2017-05-11T05:07:50.269Z,71.25
2017-05-11T05:08:16.377Z,71.06
2017-05-11T05:08:42.526Z,72.01
2017-05-11T05:09:08.631Z,72.11
2017-05-11T05:09:34.796Z,72.11
2017-05-11T05:10:00.916Z,72.01
2017-05-11T05:10:27.037Z,71.44
2017-05-11T05:10:53.138Z,71.34
2017-05-11T05:11:19.242Z,72.01
2017-05-11T05:11:45.329Z,72.01
2017-05-11T05:12:11.425Z,72.2
2017-05-11T05:12:37.529Z,71.72
2017-05-11T05:13:03.669Z,71.72
2017-05-11T05:13:29.766Z,72.11
2017-05-11T05:13:55.898Z,71.91
2017-05-11T05:14:21.990Z,71.86
2017-05-11T05:14:48.104Z,71.28
2017-05-11T05:15:14.211Z,71
2017-05-11T05:15:40.361Z,70.81
2017-05-11T05:16:06.472Z,71.38
2017-05-11T05:16:32.603Z,70.9
2017-05-11T05:16:58.754Z,71.38
2017-05-11T05:17:24.842Z,71.28
2017-05-11T05:17:50.971Z,71.19
2017-05-11T05:18:17.103Z,70.9
2017-05-11T05:18:43.241Z,71.09
2017-05-11T05:19:09.390Z,71
2017-05-11T05:19:35.549Z,70.81
2017-05-11T05:20:01.658Z,70.81
2017-05-11T05:20:27.752Z,70.72
2017-05-11T05:20:53.860Z,70.72
2017-05-11T05:21:20.004Z,70.33
2017-05-11T05:21:46.105Z,70.72
2017-05-11T05:22:12.242Z,70.81
2017-05-11T05:22:38.389Z,71
2017-05-11T05:23:04.492Z,70.9
2017-05-11T05:23:30.629Z,70.9
2017-05-11T05:23:56.771Z,71.09
2017-05-11T05:24:22.931Z,71
2017-05-11T05:24:49.050Z,70.33
2017-05-11T05:25:15.188Z,70.62
2017-05-11T05:25:41.353Z,70.33
2017-05-11T05:26:07.448Z,70.33
2017-05-11T05:26:33.560Z,69.95
2017-05-11T05:26:59.716Z,69.57
2017-05-11T05:27:25.808Z,69.67
2017-05-11T05:27:51.941Z,69.67
2017-05-11T05:28:18.085Z,69.67
2017-05-11T05:28:44.200Z,70.05
2017-05-11T05:29:10.386Z,69.89
2017-05-11T05:29:36.531Z,69.7
2017-05-11T05:30:02.647Z,69.67
2017-05-11T05:30:28.750Z,69.38
2017-05-11T05:30:54.873Z,69.42
2017-05-11T05:31:20.960Z,69.57
2017-05-11T05:31:47.086Z,69.76
2017-05-11T05:32:13.189Z,69.48
2017-05-11T05:32:39.307Z,69.85
2017-05-11T05:33:05.430Z,69.67
2017-05-11T05:33:31.518Z,69.67
2017-05-11T05:33:57.651Z,69.19
2017-05-11T05:34:23.750Z,69.48
2017-05-11T05:34:49.887Z,69.38
2017-05-11T05:35:16.012Z,69.76
2017-05-11T05:35:42.115Z,69.85
2017-05-11T05:36:08.201Z,69.67
2017-05-11T05:36:34.300Z,69.67
2017-05-11T05:37:00.461Z,69.51
2017-05-11T05:37:26.550Z,69.95